BXI weather

Boundiali Airport
Boundiali, Savanes, Côte d'Ivoire

Public forecast

Using degrees Celsius for public forecast. Weather courtesy of forecast.io.

Closest aviation weather report (METAR) to Boundiali Airport

Report is more than 6 hours old.

Closest report is Korhogo Airport, 54.6 nm (101.2 km) E. Retrieved 2019/08/16 18:00 UTC (2 months ago):

DIKO 161800Z 20004KT 9999 SCT013 SCT016CB BKN260 29/22 Q1011 NOSIG

Aviation forecast (TAF) for Boundiali Airport

Forecast is more than 12 hours old.

Retrieved 2009/12/27 10:00 UTC (10 years ago):

TAF DIBI 271000Z 2712/2812 30008KT 6000 FEW015 PROB30 TEMPO 2715/2719 3000 HZ TEMPO 2806/2809 3000 BR